createdAt,value
2018-08-04T00:02:32.981Z,10.95
2018-08-04T00:07:37.295Z,5.75
2018-08-04T00:12:41.028Z,12.93
2018-08-04T00:17:44.874Z,7.62
2018-08-04T00:22:48.872Z,5.50
2018-08-04T00:27:52.389Z,6.10
2018-08-04T00:32:56.142Z,6.08
2018-08-04T00:37:59.735Z,6.80
2018-08-04T00:43:03.325Z,4.92
2018-08-04T00:48:06.852Z,6.50
2018-08-04T00:53:10.406Z,5.30
2018-08-04T00:58:14.040Z,4.33
2018-08-04T01:03:17.954Z,6.83
2018-08-04T01:08:21.834Z,4.45
2018-08-04T01:13:25.670Z,5.25
2018-08-04T01:18:30.114Z,4.75
2018-08-04T01:23:33.939Z,5.58
2018-08-04T01:28:37.549Z,6.87
2018-08-04T01:33:41.129Z,5.03
2018-08-04T01:38:46.807Z,6.47
2018-08-04T01:43:50.321Z,4.92
2018-08-04T01:48:54.084Z,5.12
2018-08-04T01:53:57.777Z,4.85
2018-08-04T01:59:01.367Z,4.47
2018-08-04T02:04:04.925Z,4.25
2018-08-04T02:09:10.381Z,6.83
2018-08-04T02:14:14.441Z,4.22
2018-08-04T02:19:18.002Z,7.08
2018-08-04T02:24:21.561Z,6.67
2018-08-04T02:29:25.234Z,3.95
2018-08-04T02:34:28.751Z,10.93
2018-08-04T02:39:32.497Z,4.05
2018-08-04T02:44:36.812Z,5.10
2018-08-04T02:49:40.358Z,12.47
2018-08-04T02:54:43.928Z,5.35
2018-08-04T02:59:47.501Z,4.35
2018-08-04T03:04:51.028Z,5.65
2018-08-04T03:09:54.568Z,5.05
2018-08-04T03:14:58.106Z,6.08
2018-08-04T03:20:03.895Z,4.25
2018-08-04T03:25:08.008Z,6.78
2018-08-04T03:30:14.346Z,5.03
2018-08-04T03:35:18.075Z,4.27
2018-08-04T03:40:22.985Z,5.37
2018-08-04T03:45:26.602Z,5.45
2018-08-04T03:50:30.207Z,6.30
2018-08-04T03:55:33.769Z,4.90
2018-08-04T04:00:37.344Z,10.38
2018-08-04T04:05:41.269Z,5.67
2018-08-04T04:10:44.882Z,7.20
2018-08-04T04:15:48.473Z,7.35
2018-08-04T04:20:51.985Z,7.65
2018-08-04T04:25:55.524Z,5.47
2018-08-04T04:30:59.172Z,10.95
2018-08-04T04:36:02.958Z,6.65
2018-08-04T04:41:06.973Z,7.67
2018-08-04T04:46:10.913Z,9.93
2018-08-04T04:51:15.216Z,10.05
2018-08-04T04:56:18.798Z,10.43
2018-08-04T05:01:22.340Z,44.80
2018-08-04T05:06:25.878Z,78.87
2018-08-04T05:11:29.434Z,81.67
2018-08-04T05:16:33.011Z,66.73
2018-08-04T05:21:36.836Z,29.30
2018-08-04T05:26:40.525Z,15.08
2018-08-04T05:31:44.965Z,8.38
2018-08-04T05:36:48.414Z,6.67
2018-08-04T05:41:51.994Z,6.33
2018-08-04T05:46:55.657Z,6.55
2018-08-04T05:52:00.134Z,11.48
2018-08-04T05:57:03.764Z,5.95
2018-08-04T06:02:07.767Z,6.55
2018-08-04T06:07:11.263Z,6.85
2018-08-04T06:12:15.670Z,8.00
2018-08-04T06:17:23.196Z,7.53
2018-08-04T06:22:29.013Z,8.93
2018-08-04T06:27:37.153Z,7.53
2018-08-04T06:32:41.982Z,10.88
2018-08-04T06:37:47.836Z,8.98
2018-08-04T06:42:53.639Z,10.15
2018-08-04T06:47:58.144Z,8.25
2018-08-04T06:53:04.986Z,11.48
2018-08-04T06:58:10.101Z,9.50
2018-08-04T07:03:16.640Z,10.10
2018-08-04T07:08:20.306Z,8.65
2018-08-04T07:13:25.066Z,11.65
2018-08-04T07:18:28.877Z,11.63
2018-08-04T07:23:39.765Z,10.85
2018-08-04T07:28:43.354Z,11.00
2018-08-04T07:33:46.881Z,14.50
2018-08-04T07:38:50.470Z,11.60
2018-08-04T07:43:54.802Z,11.25
2018-08-04T07:48:58.777Z,10.35
2018-08-04T07:54:03.706Z,10.72
2018-08-04T07:59:13.516Z,14.40
2018-08-04T08:04:19.626Z,11.18
2018-08-04T08:09:29.087Z,11.73
2018-08-04T08:14:33.605Z,14.33
2018-08-04T08:19:37.202Z,11.22
2018-08-04T08:24:40.882Z,9.03
2018-08-04T08:29:44.517Z,12.80
2018-08-04T08:34:48.450Z,13.57
2018-08-04T08:39:52.117Z,11.90
2018-08-04T08:44:55.742Z,12.18
2018-08-04T08:49:59.281Z,10.20
2018-08-04T08:55:10.033Z,9.98
2018-08-04T09:00:14.679Z,8.38
2018-08-04T09:05:24.781Z,7.87
2018-08-04T09:10:28.398Z,7.50
2018-08-04T09:15:32.092Z,17.15
2018-08-04T09:20:36.334Z,8.53
2018-08-04T09:25:40.686Z,9.48
2018-08-04T09:30:45.729Z,7.40
2018-08-04T09:35:49.203Z,7.58
2018-08-04T09:40:52.710Z,9.53
2018-08-04T09:45:56.322Z,10.58
2018-08-04T09:50:59.842Z,8.83
2018-08-04T09:56:03.393Z,8.68
2018-08-04T10:01:12.779Z,10.40
2018-08-04T10:06:16.666Z,11.85
2018-08-04T10:11:26.335Z,9.73
2018-08-04T10:16:30.050Z,7.35
2018-08-04T10:21:34.495Z,10.50
2018-08-04T10:26:38.850Z,7.80
2018-08-04T10:31:53.470Z,9.60
2018-08-04T10:36:58.206Z,12.93
2018-08-04T10:42:02.402Z,12.00
2018-08-04T10:47:07.123Z,9.90
2018-08-04T10:52:11.314Z,8.40
2018-08-04T10:57:18.930Z,8.65
2018-08-04T11:08:04.083Z,8.30
2018-08-04T11:13:09.323Z,8.83
2018-08-04T11:18:17.825Z,7.92
2018-08-04T11:23:23.473Z,7.70
2018-08-04T11:28:27.445Z,9.73
2018-08-04T11:44:55.322Z,7.45
2018-08-04T11:49:59.349Z,9.15
2018-08-04T11:55:06.224Z,7.62
2018-08-04T12:00:10.535Z,7.37
2018-08-04T12:05:14.685Z,9.73
2018-08-04T12:10:18.642Z,8.03
2018-08-04T12:15:23.845Z,6.62
2018-08-04T12:20:27.756Z,8.20
2018-08-04T12:25:31.568Z,6.87
2018-08-04T12:30:35.252Z,6.47
2018-08-04T12:35:39.181Z,9.18
2018-08-04T12:40:42.838Z,7.28
2018-08-04T12:45:47.008Z,9.33
2018-08-04T12:50:51.173Z,7.10
2018-08-04T12:55:55.041Z,8.17
2018-08-04T13:00:58.759Z,6.92
2018-08-04T13:06:03.033Z,7.15
2018-08-04T13:11:06.869Z,6.83
2018-08-04T13:16:10.402Z,7.33
2018-08-04T13:21:14.258Z,7.25
2018-08-04T13:26:18.930Z,7.35
2018-08-04T13:31:22.693Z,6.15
2018-08-04T13:36:26.180Z,6.85
2018-08-04T13:41:30.618Z,7.15
2018-08-04T13:46:34.385Z,8.00
2018-08-04T13:51:38.554Z,7.28
2018-08-04T13:56:42.211Z,10.32
2018-08-04T14:01:45.915Z,6.03
2018-08-04T14:06:49.567Z,9.63
2018-08-04T14:11:53.046Z,5.78
2018-08-04T14:16:56.593Z,9.40
2018-08-04T14:22:00.187Z,5.65
2018-08-04T14:27:03.737Z,6.62
2018-08-04T14:32:07.324Z,5.75
2018-08-04T14:37:11.206Z,5.92
2018-08-04T14:42:14.939Z,7.42
2018-08-04T14:47:18.561Z,8.18
2018-08-04T14:52:22.168Z,5.95
2018-08-04T14:57:25.889Z,6.42
2018-08-04T15:02:29.854Z,8.28
2018-08-04T15:07:33.790Z,5.37
2018-08-04T15:12:38.191Z,6.47
2018-08-04T15:17:42.415Z,7.05
2018-08-04T15:22:47.242Z,4.87
2018-08-04T15:27:53.424Z,4.33
2018-08-04T15:32:57.446Z,4.42
2018-08-04T15:38:01.107Z,4.20
2018-08-04T15:43:04.824Z,5.78
2018-08-04T15:48:09.456Z,5.10
2018-08-04T15:53:13.743Z,6.40
2018-08-04T15:58:19.136Z,4.95
2018-08-04T16:03:22.915Z,4.97
2018-08-04T16:08:26.531Z,6.90
2018-08-04T16:13:30.518Z,4.83
2018-08-04T16:18:34.013Z,11.55
2018-08-04T16:23:37.964Z,6.97
2018-08-04T16:28:41.851Z,6.80
2018-08-04T16:33:45.596Z,5.17
2018-08-04T16:38:49.213Z,5.40
2018-08-04T16:43:52.831Z,8.00
2018-08-04T16:48:56.741Z,4.10
2018-08-04T16:54:00.607Z,4.75
2018-08-04T16:59:04.163Z,5.65
2018-08-04T17:04:08.098Z,5.47
2018-08-04T17:09:13.153Z,4.28
2018-08-04T17:14:16.825Z,4.80
2018-08-04T17:19:20.483Z,4.15
2018-08-04T17:24:24.398Z,4.27
2018-08-04T17:29:28.386Z,4.75
2018-08-04T17:34:32.850Z,3.50
2018-08-04T17:39:36.481Z,3.62
2018-08-04T17:44:40.068Z,6.45
2018-08-04T17:49:44.587Z,5.92
2018-08-04T17:54:48.303Z,4.70
2018-08-04T17:59:52.107Z,4.25
2018-08-04T18:04:55.925Z,8.25
2018-08-04T18:09:59.473Z,5.03
2018-08-04T18:15:08.854Z,4.40
2018-08-04T18:20:12.850Z,5.67
2018-08-04T18:25:16.467Z,9.18
2018-08-04T18:30:20.031Z,3.80
2018-08-04T18:35:23.498Z,4.78
2018-08-04T18:40:27.148Z,4.08
2018-08-04T18:45:30.686Z,5.85
2018-08-04T18:50:34.505Z,4.92
2018-08-04T18:55:38.007Z,4.72
2018-08-04T19:00:41.566Z,4.35
2018-08-04T19:05:45.046Z,6.22
2018-08-04T19:10:48.722Z,7.83
2018-08-04T19:15:52.218Z,4.50
2018-08-04T19:20:56.006Z,6.30
2018-08-04T19:25:59.895Z,8.15
2018-08-04T19:31:03.529Z,6.15
2018-08-04T19:36:07.068Z,8.10
2018-08-04T19:41:10.863Z,6.62
2018-08-04T19:46:14.930Z,6.95
2018-08-04T19:51:18.530Z,5.20
2018-08-04T19:56:22.971Z,5.30
2018-08-04T20:01:26.410Z,4.80
2018-08-04T20:06:30.106Z,5.80
2018-08-04T20:11:33.701Z,6.30
2018-08-04T20:16:37.282Z,6.00
2018-08-04T20:21:40.825Z,5.15
2018-08-04T20:26:44.398Z,6.70
2018-08-04T20:31:48.028Z,5.85
2018-08-04T20:36:51.568Z,4.75
2018-08-04T20:41:55.068Z,4.78
2018-08-04T20:46:58.590Z,4.58
2018-08-04T20:52:02.184Z,9.03
2018-08-04T20:57:05.802Z,5.33
2018-08-04T21:02:09.371Z,4.67
2018-08-04T21:07:13.275Z,6.28
2018-08-04T21:12:16.722Z,5.08
2018-08-04T21:17:20.930Z,6.47
2018-08-04T21:22:24.386Z,4.42
2018-08-04T21:27:28.423Z,4.22
2018-08-04T21:32:31.990Z,6.72
2018-08-04T21:37:35.490Z,6.25
2018-08-04T21:42:39.061Z,4.80
2018-08-04T21:47:42.645Z,4.42
2018-08-04T21:52:46.290Z,6.25
2018-08-04T21:57:49.800Z,4.50
2018-08-04T22:02:59.583Z,4.85
2018-08-04T22:08:14.238Z,5.15
2018-08-04T22:13:17.709Z,5.53
2018-08-04T22:18:21.329Z,6.78
2018-08-04T22:23:24.939Z,4.72
2018-08-04T22:28:28.511Z,4.72
2018-08-04T22:33:32.065Z,4.97
2018-08-04T22:38:35.631Z,4.92
2018-08-04T22:43:39.182Z,4.78
2018-08-04T22:48:44.985Z,5.75
2018-08-04T22:53:48.708Z,6.92
2018-08-04T22:58:52.216Z,5.67
2018-08-04T23:03:55.850Z,5.85
2018-08-04T23:08:59.390Z,6.42
2018-08-04T23:14:02.883Z,4.90
2018-08-04T23:19:07.075Z,5.58
2018-08-04T23:24:10.589Z,4.97
2018-08-04T23:29:15.334Z,5.40
2018-08-04T23:34:18.817Z,5.58
2018-08-04T23:39:22.391Z,9.98
2018-08-04T23:44:25.953Z,5.45
2018-08-04T23:49:29.483Z,4.28
2018-08-04T23:54:32.991Z,5.67
2018-08-04T23:59:36.530Z,5.35
